Nouasseur, Morocco
Current Conditions -  °F | °C
As of 3:30 PM on Sunday 25 Jan 2015 (Local Time) from GMMN Reporting Station
Few Clouds Few Clouds  
Wind Chill: 61°   Ceiling: Unl
Heat Index: 61°   Visibility: 6mi
Dew Point: 46°   Wind: 7mph
Humidity: 59%   Direction: 30°NNE
Pressure: 30.24"   Gusts: NA
Location:  33.37°N, 7.58°W
Report Text: GMMN 251430Z 03006KT 340V060 9999 FEW016 16/08 Q1024 NOSIG
Loading
Personal Weather Stations






























Interactive Weather Map New forecast layout! Learn more

10-Day Weather Forecast

Advertisements
Track Severe Weather on mobile